sensor_id;sensor_type;location;lat;lon;timestamp;P1;durP1;ratioP1;P2;durP2;ratioP2
19842;SDS011;10082;51.038;6.992;2023-12-07T00:01:59;36.90;;;30.03;;
19842;SDS011;10082;51.038;6.992;2023-12-07T00:04:27;36.77;;;29.43;;
19842;SDS011;10082;51.038;6.992;2023-12-07T00:06:54;31.13;;;27.63;;
19842;SDS011;10082;51.038;6.992;2023-12-07T00:09:21;32.10;;;28.73;;
19842;SDS011;10082;51.038;6.992;2023-12-07T00:11:50;37.40;;;31.83;;
19842;SDS011;10082;51.038;6.992;2023-12-07T00:14:17;30.33;;;27.20;;
19842;SDS011;10082;51.038;6.992;2023-12-07T00:16:44;30.53;;;27.27;;
19842;SDS011;10082;51.038;6.992;2023-12-07T00:19:11;32.23;;;28.83;;
19842;SDS011;10082;51.038;6.992;2023-12-07T00:21:40;33.47;;;29.97;;
19842;SDS011;10082;51.038;6.992;2023-12-07T00:24:07;40.83;;;33.17;;
19842;SDS011;10082;51.038;6.992;2023-12-07T00:26:34;36.70;;;30.37;;
19842;SDS011;10082;51.038;6.992;2023-12-07T00:29:01;34.00;;;30.47;;
19842;SDS011;10082;51.038;6.992;2023-12-07T00:31:28;32.60;;;28.93;;
19842;SDS011;10082;51.038;6.992;2023-12-07T00:33:57;32.13;;;28.73;;
19842;SDS011;10082;51.038;6.992;2023-12-07T00:36:24;30.90;;;27.63;;
19842;SDS011;10082;51.038;6.992;2023-12-07T00:38:52;31.80;;;28.37;;
19842;SDS011;10082;51.038;6.992;2023-12-07T00:41:19;35.53;;;29.73;;
19842;SDS011;10082;51.038;6.992;2023-12-07T00:43:47;36.00;;;30.30;;
19842;SDS011;10082;51.038;6.992;2023-12-07T00:46:14;37.27;;;31.87;;
19842;SDS011;10082;51.038;6.992;2023-12-07T00:48:41;37.03;;;31.67;;
19842;SDS011;10082;51.038;6.992;2023-12-07T00:51:08;39.70;;;33.00;;
19842;SDS011;10082;51.038;6.992;2023-12-07T00:53:35;33.67;;;30.03;;
19842;SDS011;10082;51.038;6.992;2023-12-07T00:56:04;32.13;;;28.77;;
19842;SDS011;10082;51.038;6.992;2023-12-07T00:58:32;32.87;;;29.03;;
19842;SDS011;10082;51.038;6.992;2023-12-07T01:00:59;30.43;;;27.23;;
19842;SDS011;10082;51.038;6.992;2023-12-07T01:03:26;33.33;;;29.00;;
19842;SDS011;10082;51.038;6.992;2023-12-07T01:05:54;31.87;;;28.43;;
19842;SDS011;10082;51.038;6.992;2023-12-07T01:08:21;34.23;;;30.53;;
19842;SDS011;10082;51.038;6.992;2023-12-07T01:10:48;35.60;;;31.80;;
19842;SDS011;10082;51.038;6.992;2023-12-07T01:13:16;45.57;;;35.90;;
19842;SDS011;10082;51.038;6.992;2023-12-07T01:15:44;35.80;;;31.70;;
19842;SDS011;10082;51.038;6.992;2023-12-07T01:18:12;35.43;;;30.47;;
19842;SDS011;10082;51.038;6.992;2023-12-07T01:20:39;35.93;;;31.07;;
19842;SDS011;10082;51.038;6.992;2023-12-07T01:23:06;36.30;;;31.63;;
19842;SDS011;10082;51.038;6.992;2023-12-07T01:25:34;32.17;;;28.77;;
19842;SDS011;10082;51.038;6.992;2023-12-07T01:28:01;37.40;;;31.97;;
19842;SDS011;10082;51.038;6.992;2023-12-07T01:30:30;46.33;;;33.67;;
19842;SDS011;10082;51.038;6.992;2023-12-07T01:32:57;40.57;;;32.97;;
19842;SDS011;10082;51.038;6.992;2023-12-07T01:35:25;37.73;;;31.63;;
19842;SDS011;10082;51.038;6.992;2023-12-07T01:37:51;33.73;;;30.30;;
19842;SDS011;10082;51.038;6.992;2023-12-07T01:40:20;40.50;;;32.53;;
19842;SDS011;10082;51.038;6.992;2023-12-07T01:42:50;33.30;;;29.90;;
19842;SDS011;10082;51.038;6.992;2023-12-07T01:45:18;32.70;;;29.47;;
19842;SDS011;10082;51.038;6.992;2023-12-07T01:47:47;35.27;;;31.43;;
19842;SDS011;10082;51.038;6.992;2023-12-07T01:50:17;36.80;;;31.93;;
19842;SDS011;10082;51.038;6.992;2023-12-07T01:52:49;39.37;;;32.63;;
19842;SDS011;10082;51.038;6.992;2023-12-07T01:55:21;38.47;;;32.17;;
19842;SDS011;10082;51.038;6.992;2023-12-07T01:57:49;35.17;;;31.47;;
19842;SDS011;10082;51.038;6.992;2023-12-07T02:00:17;34.80;;;31.17;;
19842;SDS011;10082;51.038;6.992;2023-12-07T02:02:44;33.13;;;29.90;;
19842;SDS011;10082;51.038;6.992;2023-12-07T02:05:13;33.93;;;30.33;;
19842;SDS011;10082;51.038;6.992;2023-12-07T02:07:40;33.20;;;29.70;;
19842;SDS011;10082;51.038;6.992;2023-12-07T02:10:08;31.90;;;28.60;;
19842;SDS011;10082;51.038;6.992;2023-12-07T02:12:35;37.73;;;31.97;;
19842;SDS011;10082;51.038;6.992;2023-12-07T02:15:02;40.40;;;32.37;;
19842;SDS011;10082;51.038;6.992;2023-12-07T02:17:32;45.90;;;33.97;;
19842;SDS011;10082;51.038;6.992;2023-12-07T02:20:03;34.10;;;30.43;;
19842;SDS011;10082;51.038;6.992;2023-12-07T02:22:39;33.80;;;30.20;;
19842;SDS011;10082;51.038;6.992;2023-12-07T02:25:09;34.80;;;30.50;;
19842;SDS011;10082;51.038;6.992;2023-12-07T02:27:39;34.37;;;30.70;;
19842;SDS011;10082;51.038;6.992;2023-12-07T02:30:07;45.53;;;34.53;;
19842;SDS011;10082;51.038;6.992;2023-12-07T02:32:36;39.53;;;32.57;;
19842;SDS011;10082;51.038;6.992;2023-12-07T02:35:04;37.73;;;31.77;;
19842;SDS011;10082;51.038;6.992;2023-12-07T02:37:33;46.13;;;33.73;;
19842;SDS011;10082;51.038;6.992;2023-12-07T02:40:05;34.90;;;31.20;;
19842;SDS011;10082;51.038;6.992;2023-12-07T02:42:37;35.20;;;31.00;;
19842;SDS011;10082;51.038;6.992;2023-12-07T02:45:06;37.93;;;31.87;;
19842;SDS011;10082;51.038;6.992;2023-12-07T02:47:35;41.57;;;33.47;;
19842;SDS011;10082;51.038;6.992;2023-12-07T02:50:02;42.90;;;32.50;;
19842;SDS011;10082;51.038;6.992;2023-12-07T02:52:30;35.70;;;31.33;;
19842;SDS011;10082;51.038;6.992;2023-12-07T02:54:58;39.60;;;33.83;;
19842;SDS011;10082;51.038;6.992;2023-12-07T02:57:24;35.60;;;31.13;;
19842;SDS011;10082;51.038;6.992;2023-12-07T02:59:53;36.60;;;31.93;;
19842;SDS011;10082;51.038;6.992;2023-12-07T03:02:20;37.33;;;32.03;;
19842;SDS011;10082;51.038;6.992;2023-12-07T03:07:23;37.97;;;32.10;;
19842;SDS011;10082;51.038;6.992;2023-12-07T03:09:50;36.80;;;31.80;;
19842;SDS011;10082;51.038;6.992;2023-12-07T03:12:17;34.63;;;30.80;;
19842;SDS011;10082;51.038;6.992;2023-12-07T03:14:44;38.47;;;30.43;;
19842;SDS011;10082;51.038;6.992;2023-12-07T03:17:13;35.43;;;30.33;;
19842;SDS011;10082;51.038;6.992;2023-12-07T03:19:40;41.33;;;32.17;;
19842;SDS011;10082;51.038;6.992;2023-12-07T03:22:08;39.37;;;32.27;;
19842;SDS011;10082;51.038;6.992;2023-12-07T03:24:35;42.00;;;32.90;;
19842;SDS011;10082;51.038;6.992;2023-12-07T03:27:03;33.50;;;29.60;;
19842;SDS011;10082;51.038;6.992;2023-12-07T03:29:31;32.67;;;29.17;;
19842;SDS011;10082;51.038;6.992;2023-12-07T03:31:58;38.37;;;31.87;;
19842;SDS011;10082;51.038;6.992;2023-12-07T03:34:27;40.40;;;31.03;;
19842;SDS011;10082;51.038;6.992;2023-12-07T03:36:53;40.57;;;30.37;;
19842;SDS011;10082;51.038;6.992;2023-12-07T03:39:20;38.60;;;31.97;;
19842;SDS011;10082;51.038;6.992;2023-12-07T03:41:48;36.03;;;30.13;;
19842;SDS011;10082;51.038;6.992;2023-12-07T03:44:15;31.00;;;27.57;;
19842;SDS011;10082;51.038;6.992;2023-12-07T03:46:48;35.63;;;29.73;;
19842;SDS011;10082;51.038;6.992;2023-12-07T03:49:15;35.97;;;29.50;;
19842;SDS011;10082;51.038;6.992;2023-12-07T03:51:44;36.97;;;31.40;;
19842;SDS011;10082;51.038;6.992;2023-12-07T03:54:11;35.63;;;29.97;;
19842;SDS011;10082;51.038;6.992;2023-12-07T03:56:38;31.13;;;27.63;;
19842;SDS011;10082;51.038;6.992;2023-12-07T03:59:06;32.90;;;28.93;;
19842;SDS011;10082;51.038;6.992;2023-12-07T04:01:33;35.10;;;28.27;;
19842;SDS011;10082;51.038;6.992;2023-12-07T04:04:00;39.23;;;30.13;;
19842;SDS011;10082;51.038;6.992;2023-12-07T04:06:27;35.23;;;29.60;;
19842;SDS011;10082;51.038;6.992;2023-12-07T04:08:56;34.03;;;29.27;;
19842;SDS011;10082;51.038;6.992;2023-12-07T04:11:23;40.20;;;31.30;;
19842;SDS011;10082;51.038;6.992;2023-12-07T04:13:50;40.87;;;31.13;;
19842;SDS011;10082;51.038;6.992;2023-12-07T04:16:17;37.73;;;30.57;;
19842;SDS011;10082;51.038;6.992;2023-12-07T04:18:44;38.57;;;30.80;;
19842;SDS011;10082;51.038;6.992;2023-12-07T04:21:11;37.63;;;31.03;;
19842;SDS011;10082;51.038;6.992;2023-12-07T04:23:38;40.10;;;31.97;;
19842;SDS011;10082;51.038;6.992;2023-12-07T04:26:07;36.23;;;31.17;;
19842;SDS011;10082;51.038;6.992;2023-12-07T04:28:34;36.17;;;30.03;;
19842;SDS011;10082;51.038;6.992;2023-12-07T04:31:01;35.00;;;30.37;;
19842;SDS011;10082;51.038;6.992;2023-12-07T04:33:28;33.17;;;29.33;;
19842;SDS011;10082;51.038;6.992;2023-12-07T04:35:55;30.53;;;27.23;;
19842;SDS011;10082;51.038;6.992;2023-12-07T04:38:22;31.43;;;27.30;;
19842;SDS011;10082;51.038;6.992;2023-12-07T04:40:49;33.13;;;28.90;;
19842;SDS011;10082;51.038;6.992;2023-12-07T04:43:18;34.80;;;29.13;;
19842;SDS011;10082;51.038;6.992;2023-12-07T04:45:45;35.53;;;29.73;;
19842;SDS011;10082;51.038;6.992;2023-12-07T04:48:12;35.43;;;27.73;;
19842;SDS011;10082;51.038;6.992;2023-12-07T04:50:39;38.87;;;29.70;;
19842;SDS011;10082;51.038;6.992;2023-12-07T04:53:06;37.03;;;28.47;;
19842;SDS011;10082;51.038;6.992;2023-12-07T04:55:33;31.30;;;26.73;;
19842;SDS011;10082;51.038;6.992;2023-12-07T04:58:00;32.33;;;28.83;;
19842;SDS011;10082;51.038;6.992;2023-12-07T05:00:29;33.93;;;27.50;;
19842;SDS011;10082;51.038;6.992;2023-12-07T05:02:57;29.30;;;26.13;;
19842;SDS011;10082;51.038;6.992;2023-12-07T05:05:23;37.40;;;30.77;;
19842;SDS011;10082;51.038;6.992;2023-12-07T05:07:50;36.20;;;32.23;;
19842;SDS011;10082;51.038;6.992;2023-12-07T05:10:18;42.47;;;31.07;;
19842;SDS011;10082;51.038;6.992;2023-12-07T05:12:45;33.53;;;28.87;;
19842;SDS011;10082;51.038;6.992;2023-12-07T05:15:15;34.37;;;29.20;;
19842;SDS011;10082;51.038;6.992;2023-12-07T05:17:44;36.03;;;29.20;;
19842;SDS011;10082;51.038;6.992;2023-12-07T05:20:11;32.87;;;27.87;;
19842;SDS011;10082;51.038;6.992;2023-12-07T05:22:38;41.63;;;31.40;;
19842;SDS011;10082;51.038;6.992;2023-12-07T05:25:06;44.57;;;32.33;;
19842;SDS011;10082;51.038;6.992;2023-12-07T05:27:34;41.80;;;32.67;;
19842;SDS011;10082;51.038;6.992;2023-12-07T05:30:02;38.97;;;31.47;;
19842;SDS011;10082;51.038;6.992;2023-12-07T05:32:30;33.27;;;29.67;;
19842;SDS011;10082;51.038;6.992;2023-12-07T05:34:58;40.57;;;30.77;;
19842;SDS011;10082;51.038;6.992;2023-12-07T05:37:26;44.87;;;32.30;;
19842;SDS011;10082;51.038;6.992;2023-12-07T05:39:53;43.43;;;33.17;;
19842;SDS011;10082;51.038;6.992;2023-12-07T05:42:20;37.87;;;30.50;;
19842;SDS011;10082;51.038;6.992;2023-12-07T05:44:47;40.43;;;31.80;;
19842;SDS011;10082;51.038;6.992;2023-12-07T05:47:14;36.63;;;30.83;;
19842;SDS011;10082;51.038;6.992;2023-12-07T05:49:41;39.67;;;31.03;;
19842;SDS011;10082;51.038;6.992;2023-12-07T05:52:09;31.93;;;27.83;;
19842;SDS011;10082;51.038;6.992;2023-12-07T05:54:36;31.37;;;27.03;;
19842;SDS011;10082;51.038;6.992;2023-12-07T05:57:07;34.30;;;28.57;;
19842;SDS011;10082;51.038;6.992;2023-12-07T05:59:36;28.63;;;25.70;;
19842;SDS011;10082;51.038;6.992;2023-12-07T06:02:03;29.57;;;26.20;;
19842;SDS011;10082;51.038;6.992;2023-12-07T06:04:30;28.93;;;25.67;;
19842;SDS011;10082;51.038;6.992;2023-12-07T06:06:57;29.53;;;25.60;;
19842;SDS011;10082;51.038;6.992;2023-12-07T06:09:26;28.13;;;24.03;;
19842;SDS011;10082;51.038;6.992;2023-12-07T06:11:54;35.17;;;27.17;;
19842;SDS011;10082;51.038;6.992;2023-12-07T06:14:21;39.63;;;28.53;;
19842;SDS011;10082;51.038;6.992;2023-12-07T06:16:48;34.13;;;26.50;;
19842;SDS011;10082;51.038;6.992;2023-12-07T06:19:15;34.07;;;27.37;;
19842;SDS011;10082;51.038;6.992;2023-12-07T06:21:45;31.93;;;25.97;;
19842;SDS011;10082;51.038;6.992;2023-12-07T06:24:12;28.10;;;24.80;;
19842;SDS011;10082;51.038;6.992;2023-12-07T06:26:42;32.87;;;27.40;;
19842;SDS011;10082;51.038;6.992;2023-12-07T06:29:09;25.30;;;22.70;;
19842;SDS011;10082;51.038;6.992;2023-12-07T06:31:36;33.47;;;26.20;;
19842;SDS011;10082;51.038;6.992;2023-12-07T06:34:09;33.43;;;26.63;;
19842;SDS011;10082;51.038;6.992;2023-12-07T06:36:36;32.40;;;26.53;;
19842;SDS011;10082;51.038;6.992;2023-12-07T06:39:03;27.33;;;24.50;;
19842;SDS011;10082;51.038;6.992;2023-12-07T06:41:30;26.03;;;23.40;;
19842;SDS011;10082;51.038;6.992;2023-12-07T06:43:58;33.37;;;25.70;;
19842;SDS011;10082;51.038;6.992;2023-12-07T06:46:26;30.23;;;24.83;;
19842;SDS011;10082;51.038;6.992;2023-12-07T06:48:53;29.83;;;24.27;;
19842;SDS011;10082;51.038;6.992;2023-12-07T06:51:20;26.23;;;23.60;;
19842;SDS011;10082;51.038;6.992;2023-12-07T06:53:46;25.83;;;23.17;;
19842;SDS011;10082;51.038;6.992;2023-12-07T06:56:14;26.10;;;23.57;;
19842;SDS011;10082;51.038;6.992;2023-12-07T06:58:41;25.60;;;23.13;;
19842;SDS011;10082;51.038;6.992;2023-12-07T07:01:10;26.37;;;23.77;;
19842;SDS011;10082;51.038;6.992;2023-12-07T07:03:38;33.00;;;25.67;;
19842;SDS011;10082;51.038;6.992;2023-12-07T07:06:09;29.60;;;24.80;;
19842;SDS011;10082;51.038;6.992;2023-12-07T07:08:36;27.63;;;24.63;;
19842;SDS011;10082;51.038;6.992;2023-12-07T07:11:09;27.33;;;24.53;;
19842;SDS011;10082;51.038;6.992;2023-12-07T07:13:38;25.13;;;22.53;;
19842;SDS011;10082;51.038;6.992;2023-12-07T07:16:05;25.67;;;22.97;;
19842;SDS011;10082;51.038;6.992;2023-12-07T07:18:36;25.07;;;22.50;;
19842;SDS011;10082;51.038;6.992;2023-12-07T07:21:04;28.27;;;24.10;;
19842;SDS011;10082;51.038;6.992;2023-12-07T07:23:31;28.20;;;25.37;;
19842;SDS011;10082;51.038;6.992;2023-12-07T07:25:58;27.70;;;24.40;;
19842;SDS011;10082;51.038;6.992;2023-12-07T07:28:25;28.03;;;24.80;;
19842;SDS011;10082;51.038;6.992;2023-12-07T07:30:53;28.10;;;24.53;;
19842;SDS011;10082;51.038;6.992;2023-12-07T07:33:20;26.33;;;23.73;;
19842;SDS011;10082;51.038;6.992;2023-12-07T07:35:48;26.07;;;23.53;;
19842;SDS011;10082;51.038;6.992;2023-12-07T07:38:15;26.13;;;23.33;;
19842;SDS011;10082;51.038;6.992;2023-12-07T07:40:42;27.27;;;24.43;;
19842;SDS011;10082;51.038;6.992;2023-12-07T07:43:10;26.77;;;22.87;;
19842;SDS011;10082;51.038;6.992;2023-12-07T07:45:37;25.20;;;22.60;;
19842;SDS011;10082;51.038;6.992;2023-12-07T07:48:04;25.17;;;22.60;;
19842;SDS011;10082;51.038;6.992;2023-12-07T07:50:33;25.90;;;23.43;;
19842;SDS011;10082;51.038;6.992;2023-12-07T07:53:03;24.47;;;21.97;;
19842;SDS011;10082;51.038;6.992;2023-12-07T07:55:30;25.00;;;22.50;;
19842;SDS011;10082;51.038;6.992;2023-12-07T07:57:57;24.77;;;22.37;;
19842;SDS011;10082;51.038;6.992;2023-12-07T08:00:24;25.53;;;23.13;;
19842;SDS011;10082;51.038;6.992;2023-12-07T08:02:53;24.50;;;22.17;;
19842;SDS011;10082;51.038;6.992;2023-12-07T08:05:20;25.47;;;22.97;;
19842;SDS011;10082;51.038;6.992;2023-12-07T08:07:47;25.73;;;23.23;;
19842;SDS011;10082;51.038;6.992;2023-12-07T08:10:15;24.80;;;22.30;;
19842;SDS011;10082;51.038;6.992;2023-12-07T08:12:42;25.80;;;23.03;;
19842;SDS011;10082;51.038;6.992;2023-12-07T08:15:10;24.93;;;22.63;;
19842;SDS011;10082;51.038;6.992;2023-12-07T08:17:37;25.03;;;22.53;;
19842;SDS011;10082;51.038;6.992;2023-12-07T08:20:06;24.03;;;21.60;;
19842;SDS011;10082;51.038;6.992;2023-12-07T08:22:34;22.97;;;20.77;;
19842;SDS011;10082;51.038;6.992;2023-12-07T08:25:01;24.17;;;21.67;;
19842;SDS011;10082;51.038;6.992;2023-12-07T08:27:32;24.03;;;21.63;;
19842;SDS011;10082;51.038;6.992;2023-12-07T08:29:59;23.30;;;21.17;;
19842;SDS011;10082;51.038;6.992;2023-12-07T08:32:27;23.47;;;21.20;;
19842;SDS011;10082;51.038;6.992;2023-12-07T08:34:57;22.90;;;20.70;;
19842;SDS011;10082;51.038;6.992;2023-12-07T08:37:24;23.40;;;21.10;;
19842;SDS011;10082;51.038;6.992;2023-12-07T08:39:51;21.93;;;19.93;;
19842;SDS011;10082;51.038;6.992;2023-12-07T08:42:18;21.87;;;19.77;;
19842;SDS011;10082;51.038;6.992;2023-12-07T08:44:47;21.50;;;19.50;;
19842;SDS011;10082;51.038;6.992;2023-12-07T08:47:14;20.43;;;18.57;;
19842;SDS011;10082;51.038;6.992;2023-12-07T08:49:41;19.13;;;17.33;;
19842;SDS011;10082;51.038;6.992;2023-12-07T08:52:08;18.20;;;16.37;;
19842;SDS011;10082;51.038;6.992;2023-12-07T08:54:35;18.37;;;16.67;;
19842;SDS011;10082;51.038;6.992;2023-12-07T08:57:03;17.50;;;16.00;;
19842;SDS011;10082;51.038;6.992;2023-12-07T08:59:30;15.90;;;14.50;;
19842;SDS011;10082;51.038;6.992;2023-12-07T09:01:59;15.77;;;14.40;;
19842;SDS011;10082;51.038;6.992;2023-12-07T09:04:26;14.03;;;12.73;;
19842;SDS011;10082;51.038;6.992;2023-12-07T09:06:54;14.43;;;13.13;;
19842;SDS011;10082;51.038;6.992;2023-12-07T09:09:21;13.73;;;12.53;;
19842;SDS011;10082;51.038;6.992;2023-12-07T09:11:49;12.83;;;11.73;;
19842;SDS011;10082;51.038;6.992;2023-12-07T09:14:16;12.27;;;11.17;;
19842;SDS011;10082;51.038;6.992;2023-12-07T09:16:43;11.53;;;10.63;;
19842;SDS011;10082;51.038;6.992;2023-12-07T09:19:13;11.97;;;10.87;;
19842;SDS011;10082;51.038;6.992;2023-12-07T09:21:41;11.23;;;10.23;;
19842;SDS011;10082;51.038;6.992;2023-12-07T09:24:07;12.10;;;11.00;;
19842;SDS011;10082;51.038;6.992;2023-12-07T09:26:35;11.73;;;10.68;;
19842;SDS011;10082;51.038;6.992;2023-12-07T09:29:02;12.00;;;10.90;;
19842;SDS011;10082;51.038;6.992;2023-12-07T09:31:29;11.48;;;10.32;;
19842;SDS011;10082;51.038;6.992;2023-12-07T09:33:56;11.47;;;10.43;;
19842;SDS011;10082;51.038;6.992;2023-12-07T09:36:25;11.17;;;10.13;;
19842;SDS011;10082;51.038;6.992;2023-12-07T09:38:53;12.15;;;10.77;;
19842;SDS011;10082;51.038;6.992;2023-12-07T09:41:20;11.45;;;10.38;;
19842;SDS011;10082;51.038;6.992;2023-12-07T09:43:48;11.77;;;10.67;;
19842;SDS011;10082;51.038;6.992;2023-12-07T09:46:15;11.40;;;10.30;;
19842;SDS011;10082;51.038;6.992;2023-12-07T09:48:43;10.37;;;9.33;;
19842;SDS011;10082;51.038;6.992;2023-12-07T09:51:11;10.93;;;9.93;;
19842;SDS011;10082;51.038;6.992;2023-12-07T09:53:40;10.95;;;9.93;;
19842;SDS011;10082;51.038;6.992;2023-12-07T09:56:09;12.20;;;9.97;;
19842;SDS011;10082;51.038;6.992;2023-12-07T10:01:21;11.13;;;10.03;;
19842;SDS011;10082;51.038;6.992;2023-12-07T10:06:43;11.98;;;10.68;;
19842;SDS011;10082;51.038;6.992;2023-12-07T10:09:12;11.23;;;10.23;;
19842;SDS011;10082;51.038;6.992;2023-12-07T10:11:40;12.23;;;10.93;;
19842;SDS011;10082;51.038;6.992;2023-12-07T10:14:08;12.20;;;11.00;;
19842;SDS011;10082;51.038;6.992;2023-12-07T10:16:36;13.67;;;12.27;;
19842;SDS011;10082;51.038;6.992;2023-12-07T10:19:18;12.97;;;11.57;;
19842;SDS011;10082;51.038;6.992;2023-12-07T10:21:47;12.27;;;11.07;;
19842;SDS011;10082;51.038;6.992;2023-12-07T10:24:16;13.67;;;12.27;;
19842;SDS011;10082;51.038;6.992;2023-12-07T10:26:44;13.47;;;12.10;;
19842;SDS011;10082;51.038;6.992;2023-12-07T10:29:12;13.43;;;12.07;;
19842;SDS011;10082;51.038;6.992;2023-12-07T10:31:39;13.23;;;11.87;;
19842;SDS011;10082;51.038;6.992;2023-12-07T10:34:06;14.60;;;12.30;;
19842;SDS011;10082;51.038;6.992;2023-12-07T10:36:34;12.33;;;11.07;;
19842;SDS011;10082;51.038;6.992;2023-12-07T10:39:01;12.40;;;11.10;;
19842;SDS011;10082;51.038;6.992;2023-12-07T10:41:33;14.33;;;11.90;;
19842;SDS011;10082;51.038;6.992;2023-12-07T10:44:05;13.13;;;11.00;;
19842;SDS011;10082;51.038;6.992;2023-12-07T10:46:34;12.87;;;11.47;;
19842;SDS011;10082;51.038;6.992;2023-12-07T10:49:04;13.17;;;11.70;;
19842;SDS011;10082;51.038;6.992;2023-12-07T10:51:34;13.00;;;11.10;;
19842;SDS011;10082;51.038;6.992;2023-12-07T10:54:09;13.00;;;11.70;;
19842;SDS011;10082;51.038;6.992;2023-12-07T10:56:40;13.00;;;11.23;;
19842;SDS011;10082;51.038;6.992;2023-12-07T10:59:10;14.03;;;11.93;;
19842;SDS011;10082;51.038;6.992;2023-12-07T11:01:40;13.07;;;11.67;;
19842;SDS011;10082;51.038;6.992;2023-12-07T11:04:08;12.27;;;10.53;;
19842;SDS011;10082;51.038;6.992;2023-12-07T11:06:38;11.50;;;10.37;;
19842;SDS011;10082;51.038;6.992;2023-12-07T11:09:07;11.37;;;10.17;;
19842;SDS011;10082;51.038;6.992;2023-12-07T11:11:41;11.67;;;10.30;;
19842;SDS011;10082;51.038;6.992;2023-12-07T11:14:13;13.30;;;10.47;;
19842;SDS011;10082;51.038;6.992;2023-12-07T11:16:43;11.77;;;10.57;;
19842;SDS011;10082;51.038;6.992;2023-12-07T11:24:56;12.57;;;11.30;;
19842;SDS011;10082;51.038;6.992;2023-12-07T11:27:30;11.77;;;10.57;;
19842;SDS011;10082;51.038;6.992;2023-12-07T11:29:58;12.27;;;11.07;;
19842;SDS011;10082;51.038;6.992;2023-12-07T11:32:26;11.97;;;10.77;;
19842;SDS011;10082;51.038;6.992;2023-12-07T11:34:54;11.60;;;10.50;;
19842;SDS011;10082;51.038;6.992;2023-12-07T11:37:20;12.63;;;10.73;;
19842;SDS011;10082;51.038;6.992;2023-12-07T11:39:47;12.93;;;11.63;;
19842;SDS011;10082;51.038;6.992;2023-12-07T11:42:16;11.93;;;10.73;;
19842;SDS011;10082;51.038;6.992;2023-12-07T11:44:47;12.43;;;11.03;;
19842;SDS011;10082;51.038;6.992;2023-12-07T11:47:15;12.27;;;10.97;;
19842;SDS011;10082;51.038;6.992;2023-12-07T11:49:44;13.47;;;11.20;;
19842;SDS011;10082;51.038;6.992;2023-12-07T11:52:14;10.20;;;9.30;;
19842;SDS011;10082;51.038;6.992;2023-12-07T11:54:43;11.83;;;9.93;;
19842;SDS011;10082;51.038;6.992;2023-12-07T11:57:11;10.80;;;9.80;;
19842;SDS011;10082;51.038;6.992;2023-12-07T11:59:38;12.40;;;9.77;;
19842;SDS011;10082;51.038;6.992;2023-12-07T12:02:06;10.90;;;9.80;;
19842;SDS011;10082;51.038;6.992;2023-12-07T12:04:35;11.00;;;10.00;;
19842;SDS011;10082;51.038;6.992;2023-12-07T12:07:03;9.70;;;8.80;;
19842;SDS011;10082;51.038;6.992;2023-12-07T12:09:30;10.80;;;9.20;;
19842;SDS011;10082;51.038;6.992;2023-12-07T12:11:59;10.90;;;9.80;;
19842;SDS011;10082;51.038;6.992;2023-12-07T12:14:27;10.07;;;9.03;;
19842;SDS011;10082;51.038;6.992;2023-12-07T12:16:54;12.77;;;9.43;;
19842;SDS011;10082;51.038;6.992;2023-12-07T12:19:23;11.47;;;9.37;;
19842;SDS011;10082;51.038;6.992;2023-12-07T12:21:50;10.00;;;9.00;;
19842;SDS011;10082;51.038;6.992;2023-12-07T12:24:17;9.70;;;8.80;;
19842;SDS011;10082;51.038;6.992;2023-12-07T12:26:44;8.93;;;8.03;;
19842;SDS011;10082;51.038;6.992;2023-12-07T12:29:12;9.63;;;8.33;;
19842;SDS011;10082;51.038;6.992;2023-12-07T12:31:39;10.00;;;9.00;;
19842;SDS011;10082;51.038;6.992;2023-12-07T12:34:06;9.40;;;8.43;;
19842;SDS011;10082;51.038;6.992;2023-12-07T12:36:38;9.47;;;8.57;;
19842;SDS011;10082;51.038;6.992;2023-12-07T12:39:06;10.33;;;8.37;;
19842;SDS011;10082;51.038;6.992;2023-12-07T12:41:33;9.97;;;7.77;;
19842;SDS011;10082;51.038;6.992;2023-12-07T12:44:00;8.40;;;7.63;;
19842;SDS011;10082;51.038;6.992;2023-12-07T12:46:27;8.57;;;7.70;;
19842;SDS011;10082;51.038;6.992;2023-12-07T12:48:55;9.20;;;7.70;;
19842;SDS011;10082;51.038;6.992;2023-12-07T12:51:24;8.80;;;7.90;;
19842;SDS011;10082;51.038;6.992;2023-12-07T12:53:54;8.67;;;7.67;;
19842;SDS011;10082;51.038;6.992;2023-12-07T12:56:23;8.00;;;7.20;;
19842;SDS011;10082;51.038;6.992;2023-12-07T12:58:50;8.67;;;7.57;;
19842;SDS011;10082;51.038;6.992;2023-12-07T13:01:18;7.77;;;6.90;;
19842;SDS011;10082;51.038;6.992;2023-12-07T13:03:46;8.20;;;7.40;;
19842;SDS011;10082;51.038;6.992;2023-12-07T13:06:13;7.87;;;7.10;;
19842;SDS011;10082;51.038;6.992;2023-12-07T13:08:47;8.00;;;7.20;;
19842;SDS011;10082;51.038;6.992;2023-12-07T13:11:16;7.30;;;6.60;;
19842;SDS011;10082;51.038;6.992;2023-12-07T13:13:44;7.83;;;6.93;;
19842;SDS011;10082;51.038;6.992;2023-12-07T13:16:12;7.87;;;7.07;;
19842;SDS011;10082;51.038;6.992;2023-12-07T13:18:40;7.73;;;7.00;;
19842;SDS011;10082;51.038;6.992;2023-12-07T13:21:07;7.40;;;6.70;;
19842;SDS011;10082;51.038;6.992;2023-12-07T13:23:35;9.70;;;7.13;;
19842;SDS011;10082;51.038;6.992;2023-12-07T13:26:02;7.97;;;7.17;;
19842;SDS011;10082;51.038;6.992;2023-12-07T13:28:33;8.07;;;7.37;;
19842;SDS011;10082;51.038;6.992;2023-12-07T13:31:01;7.57;;;6.87;;
19842;SDS011;10082;51.038;6.992;2023-12-07T13:33:28;8.07;;;6.53;;
19842;SDS011;10082;51.038;6.992;2023-12-07T13:35:55;7.80;;;6.97;;
19842;SDS011;10082;51.038;6.992;2023-12-07T13:38:22;6.90;;;6.30;;
19842;SDS011;10082;51.038;6.992;2023-12-07T13:40:49;7.30;;;6.57;;
19842;SDS011;10082;51.038;6.992;2023-12-07T13:43:16;6.70;;;6.10;;
19842;SDS011;10082;51.038;6.992;2023-12-07T13:45:45;7.07;;;6.10;;
19842;SDS011;10082;51.038;6.992;2023-12-07T13:48:12;6.20;;;5.70;;
19842;SDS011;10082;51.038;6.992;2023-12-07T13:50:39;6.73;;;6.13;;
19842;SDS011;10082;51.038;6.992;2023-12-07T13:53:09;6.38;;;5.82;;
19842;SDS011;10082;51.038;6.992;2023-12-07T13:55:37;6.30;;;5.70;;
19842;SDS011;10082;51.038;6.992;2023-12-07T13:58:04;6.73;;;6.13;;
19842;SDS011;10082;51.038;6.992;2023-12-07T14:00:31;6.77;;;6.07;;
19842;SDS011;10082;51.038;6.992;2023-12-07T14:03:00;6.90;;;6.20;;
19842;SDS011;10082;51.038;6.992;2023-12-07T14:05:29;7.23;;;6.40;;
19842;SDS011;10082;51.038;6.992;2023-12-07T14:07:56;7.33;;;6.60;;
19842;SDS011;10082;51.038;6.992;2023-12-07T14:10:23;7.27;;;6.67;;
19842;SDS011;10082;51.038;6.992;2023-12-07T14:12:50;7.80;;;7.00;;
19842;SDS011;10082;51.038;6.992;2023-12-07T14:15:18;7.80;;;6.97;;
19842;SDS011;10082;51.038;6.992;2023-12-07T14:17:45;7.53;;;6.73;;
19842;SDS011;10082;51.038;6.992;2023-12-07T14:20:14;7.13;;;6.00;;
19842;SDS011;10082;51.038;6.992;2023-12-07T14:22:41;8.50;;;7.10;;
19842;SDS011;10082;51.038;6.992;2023-12-07T14:25:07;6.67;;;5.97;;
19842;SDS011;10082;51.038;6.992;2023-12-07T14:27:36;6.87;;;6.10;;
19842;SDS011;10082;51.038;6.992;2023-12-07T14:30:03;7.17;;;6.47;;
19842;SDS011;10082;51.038;6.992;2023-12-07T14:32:30;6.83;;;6.20;;
19842;SDS011;10082;51.038;6.992;2023-12-07T14:34:57;8.00;;;6.77;;
19842;SDS011;10082;51.038;6.992;2023-12-07T14:37:26;6.57;;;5.95;;
19842;SDS011;10082;51.038;6.992;2023-12-07T14:39:54;6.40;;;5.80;;
19842;SDS011;10082;51.038;6.992;2023-12-07T14:42:21;7.53;;;5.97;;
19842;SDS011;10082;51.038;6.992;2023-12-07T14:44:48;8.27;;;6.03;;